Terminal Aerodrome Forecast
Issued by NWS

Home | Current Version | Previous Version | Text Only | Print | Product List | Glossary On
Versions: 1 2 3 4 5 6 7 8 9 10 11 12 13 14 15 16 17 18 19 20 21 22 23 24 25 26 27 28 29 30 31 32 33 34 35 36 37 38 39 40 41 42 43 44 45 46 47 48 49 50
000
FTUS42 KRAH 230540
TAFRWI
TAF
KRWI 230540Z 2306/2406 06009KT 3SM -SHRA OVC004
     FM230900 04013G21KT 2SM SHRA OVC003
     FM231500 23004KT 3SM BR OVC005
     FM231700 25005KT P6SM OVC050
     FM240000 32005KT P6SM OVC015=

USA.gov is the U.S. government's official web portal to all federal, state and local government web resources and services.